Terminal Aerodrome Forecast
Issued by NWS

Home | Current Version | Previous Version | Text Only | Print | Product List | Glossary On
Versions: 1 2 3 4 5 6 7 8 9 10 11 12 13 14 15 16 17
203
FTUS43 KGRR 032340
TAFLAN
TAF
KLAN 032340Z 0400/0424 26006KT P6SM OVC025
     FM040600 VRB03KT P6SM BKN050
     FM041700 15006KT 4SM -SN OVC025
     FM041900 15008KT 1 1/2SM -SN OVC015=

USA.gov is the U.S. government's official web portal to all federal, state and local government web resources and services.